createdAt,value
2018-06-30T00:01:38.560Z,34.40
2018-06-30T00:04:06.907Z,34.00
2018-06-30T00:06:35.239Z,34.30
2018-06-30T00:09:05.789Z,34.20
2018-06-30T00:11:34.106Z,34.20
2018-06-30T00:14:02.529Z,34.20
2018-06-30T00:16:30.924Z,34.30
2018-06-30T00:18:59.499Z,34.20
2018-06-30T00:21:27.887Z,34.00
2018-06-30T00:23:56.476Z,34.20
2018-06-30T00:26:24.825Z,34.00
2018-06-30T00:28:53.335Z,34.30
2018-06-30T00:31:21.713Z,33.90
2018-06-30T00:33:50.068Z,34.20
2018-06-30T00:36:18.435Z,34.20
2018-06-30T00:38:46.768Z,34.00
2018-06-30T00:41:15.141Z,34.20
2018-06-30T00:43:43.570Z,34.10
2018-06-30T00:46:11.929Z,34.70
2018-06-30T00:48:40.369Z,34.30
2018-06-30T00:51:08.674Z,34.00
2018-06-30T00:56:05.413Z,34.00
2018-06-30T00:58:33.777Z,34.20
2018-06-30T01:01:02.202Z,34.10
2018-06-30T01:03:30.600Z,34.20
2018-06-30T01:05:58.993Z,34.20
2018-06-30T01:08:27.383Z,34.20
2018-06-30T01:10:55.732Z,34.30
2018-06-30T01:13:24.128Z,34.40
2018-06-30T01:15:52.650Z,34.00
2018-06-30T01:18:20.997Z,34.00
2018-06-30T01:20:49.373Z,34.10
2018-06-30T01:23:17.761Z,34.00
2018-06-30T01:25:46.182Z,34.20
2018-06-30T01:30:42.795Z,34.20
2018-06-30T01:33:11.145Z,34.10
2018-06-30T01:35:39.813Z,34.40
2018-06-30T01:38:08.217Z,34.30
2018-06-30T01:40:36.555Z,34.40
2018-06-30T01:45:32.983Z,34.50
2018-06-30T01:48:01.337Z,34.50
2018-06-30T01:50:29.737Z,34.50
2018-06-30T01:52:58.102Z,34.50
2018-06-30T01:55:26.552Z,34.40
2018-06-30T01:57:54.914Z,34.20
2018-06-30T02:00:23.286Z,34.20
2018-06-30T02:02:51.794Z,34.30
2018-06-30T02:05:20.144Z,34.20
2018-06-30T02:07:48.583Z,34.20
2018-06-30T02:10:16.949Z,34.30
2018-06-30T02:12:45.287Z,34.50
2018-06-30T02:15:13.695Z,34.20
2018-06-30T02:17:42.026Z,34.20
2018-06-30T02:20:10.375Z,34.20
2018-06-30T02:22:38.776Z,34.40
2018-06-30T02:27:35.237Z,33.60
2018-06-30T02:30:04.638Z,34.30
2018-06-30T02:35:01.466Z,34.30
2018-06-30T02:37:29.880Z,34.40
2018-06-30T02:39:58.298Z,34.40
2018-06-30T02:42:26.624Z,34.30
2018-06-30T02:44:55.024Z,34.30
2018-06-30T02:47:23.407Z,34.40
2018-06-30T02:49:51.772Z,34.50
2018-06-30T02:52:20.174Z,34.50
2018-06-30T02:54:48.555Z,34.50
2018-06-30T02:57:17.084Z,34.50
2018-06-30T02:59:45.438Z,34.50
2018-06-30T03:02:13.754Z,34.40
2018-06-30T03:04:42.098Z,34.40
2018-06-30T03:07:10.477Z,34.40
2018-06-30T03:09:38.844Z,34.30
2018-06-30T03:12:07.223Z,34.40
2018-06-30T03:14:35.734Z,34.40
2018-06-30T03:17:04.146Z,34.40
2018-06-30T03:19:32.618Z,34.50
2018-06-30T03:22:00.989Z,34.40
2018-06-30T03:24:29.552Z,34.40
2018-06-30T03:26:57.883Z,34.40
2018-06-30T03:29:26.250Z,34.50
2018-06-30T03:36:50.955Z,34.50
2018-06-30T03:39:19.264Z,34.40
2018-06-30T03:41:47.608Z,34.30
2018-06-30T03:44:15.966Z,34.50
2018-06-30T03:46:44.347Z,34.40
2018-06-30T03:49:12.702Z,34.50
2018-06-30T03:51:41.216Z,34.50
2018-06-30T03:54:10.040Z,34.40
2018-06-30T03:59:06.520Z,34.20
2018-06-30T04:01:34.966Z,34.30
2018-06-30T04:04:03.308Z,34.30
2018-06-30T04:06:31.754Z,34.50
2018-06-30T04:09:00.173Z,34.40
2018-06-30T04:11:28.598Z,34.40
2018-06-30T04:13:56.992Z,34.50
2018-06-30T04:16:25.343Z,34.50
2018-06-30T04:18:53.716Z,34.50
2018-06-30T04:21:22.092Z,34.50
2018-06-30T04:28:46.590Z,34.50
2018-06-30T04:31:14.962Z,34.50
2018-06-30T04:33:43.288Z,34.50
2018-06-30T04:36:11.612Z,34.50
2018-06-30T04:38:40.028Z,34.50
2018-06-30T04:41:08.370Z,34.50
2018-06-30T04:43:36.780Z,34.60
2018-06-30T04:46:05.117Z,34.50
2018-06-30T04:48:33.454Z,34.50
2018-06-30T04:51:01.933Z,34.60
2018-06-30T04:53:30.309Z,34.50
2018-06-30T04:55:58.702Z,34.50
2018-06-30T04:58:27.039Z,34.60
2018-06-30T05:00:55.630Z,34.60
2018-06-30T05:03:23.963Z,34.80
2018-06-30T05:05:52.274Z,34.80
2018-06-30T05:08:20.632Z,34.60
2018-06-30T05:10:48.989Z,34.50
2018-06-30T05:13:17.410Z,34.50
2018-06-30T05:15:45.876Z,34.50
2018-06-30T05:18:14.240Z,34.60
2018-06-30T05:20:42.572Z,34.60
2018-06-30T05:23:10.948Z,34.70
2018-06-30T05:25:39.264Z,34.60
2018-06-30T05:28:07.807Z,34.70
2018-06-30T05:30:36.185Z,34.60
2018-06-30T05:33:04.604Z,34.60
2018-06-30T05:35:33.026Z,34.50
2018-06-30T05:38:01.403Z,34.40
2018-06-30T05:40:29.854Z,34.50
2018-06-30T05:42:58.319Z,34.50
2018-06-30T05:45:26.773Z,34.50
2018-06-30T05:47:55.226Z,34.50
2018-06-30T05:50:23.577Z,34.50
2018-06-30T05:52:52.019Z,34.50
2018-06-30T05:55:20.416Z,34.40
2018-06-30T05:57:48.823Z,34.50
2018-06-30T06:00:17.179Z,34.60
2018-06-30T06:02:45.530Z,34.60
2018-06-30T06:05:13.995Z,34.60
2018-06-30T06:07:42.311Z,34.60
2018-06-30T06:10:10.660Z,34.60
2018-06-30T06:12:39.080Z,34.50
2018-06-30T06:15:07.448Z,34.40
2018-06-30T06:17:35.776Z,34.40
2018-06-30T06:20:04.546Z,34.50
2018-06-30T06:22:32.861Z,34.60
2018-06-30T06:25:01.192Z,34.50
2018-06-30T06:27:29.563Z,34.60
2018-06-30T06:29:57.971Z,34.50
2018-06-30T06:32:26.348Z,34.80
2018-06-30T06:34:54.696Z,34.80
2018-06-30T06:37:23.160Z,34.60
2018-06-30T06:39:51.648Z,34.70
2018-06-30T06:42:20.005Z,34.50
2018-06-30T06:44:49.290Z,34.70
2018-06-30T06:47:17.764Z,34.70
2018-06-30T06:52:14.205Z,34.60
2018-06-30T06:54:42.594Z,34.60
2018-06-30T06:57:10.977Z,34.70
2018-06-30T06:59:39.284Z,34.70
2018-06-30T07:02:07.737Z,34.50
2018-06-30T07:04:36.069Z,34.50
2018-06-30T07:07:04.563Z,34.50
2018-06-30T07:09:32.948Z,34.40
2018-06-30T07:12:01.374Z,34.40
2018-06-30T07:14:29.863Z,34.30
2018-06-30T07:16:58.235Z,34.90
2018-06-30T07:19:26.581Z,34.20
2018-06-30T07:21:55.057Z,34.30
2018-06-30T07:24:23.463Z,34.40
2018-06-30T07:26:51.803Z,34.20
2018-06-30T07:29:20.239Z,34.20
2018-06-30T07:31:48.690Z,34.20
2018-06-30T07:34:17.068Z,34.10
2018-06-30T07:36:45.444Z,34.20
2018-06-30T07:39:13.853Z,34.10
2018-06-30T07:41:42.452Z,34.10
2018-06-30T07:44:10.867Z,34.10
2018-06-30T07:46:39.226Z,34.10
2018-06-30T07:49:07.611Z,34.00
2018-06-30T07:51:35.953Z,34.00
2018-06-30T07:54:04.297Z,34.10
2018-06-30T07:56:32.829Z,34.00
2018-06-30T07:59:01.362Z,34.10
2018-06-30T08:01:29.773Z,34.10
2018-06-30T08:03:58.269Z,34.10
2018-06-30T08:06:26.676Z,34.10
2018-06-30T08:08:55.072Z,34.10
2018-06-30T08:11:23.438Z,34.20
2018-06-30T08:13:52.091Z,34.10
2018-06-30T08:16:27.140Z,34.10
2018-06-30T08:18:55.475Z,34.10
2018-06-30T08:21:23.845Z,34.20
2018-06-30T08:23:52.246Z,34.10
2018-06-30T08:26:20.576Z,34.10
2018-06-30T08:28:48.921Z,34.10
2018-06-30T08:31:17.318Z,34.20
2018-06-30T08:33:45.694Z,34.20
2018-06-30T08:36:14.055Z,34.10
2018-06-30T08:38:43.069Z,34.10
2018-06-30T08:41:11.425Z,34.20
2018-06-30T08:43:39.769Z,34.10
2018-06-30T08:46:08.452Z,34.80
2018-06-30T08:48:36.825Z,34.30
2018-06-30T08:51:05.350Z,34.20
2018-06-30T08:53:33.769Z,34.20
2018-06-30T08:56:02.104Z,34.10
2018-06-30T08:58:30.441Z,34.30
2018-06-30T09:00:58.805Z,34.30
2018-06-30T09:03:27.177Z,34.30
2018-06-30T09:05:55.634Z,34.30
2018-06-30T09:08:24.125Z,34.40
2018-06-30T09:10:52.444Z,34.30
2018-06-30T09:13:20.887Z,34.30
2018-06-30T09:15:49.321Z,34.40
2018-06-30T09:18:17.703Z,34.30
2018-06-30T09:20:46.097Z,34.30
2018-06-30T09:23:14.513Z,34.30
2018-06-30T09:25:42.916Z,34.30
2018-06-30T09:28:11.266Z,34.30
2018-06-30T09:30:39.641Z,34.30
2018-06-30T09:33:08.093Z,34.40
2018-06-30T09:35:36.472Z,34.20
2018-06-30T09:38:05.070Z,34.20
2018-06-30T09:40:33.524Z,34.20
2018-06-30T09:43:01.897Z,34.30
2018-06-30T09:45:30.297Z,34.20
2018-06-30T09:47:58.637Z,34.40
2018-06-30T09:50:26.985Z,34.40
2018-06-30T09:52:55.369Z,34.30
2018-06-30T09:55:23.901Z,34.20
2018-06-30T09:57:52.340Z,34.30
2018-06-30T10:00:26.066Z,34.30
2018-06-30T10:02:54.474Z,34.20
2018-06-30T10:05:22.803Z,34.20
2018-06-30T10:07:51.254Z,34.30
2018-06-30T10:10:19.677Z,34.40
2018-06-30T10:12:48.135Z,34.40
2018-06-30T10:15:16.525Z,34.40
2018-06-30T10:20:13.596Z,34.40
2018-06-30T10:22:42.030Z,34.50
2018-06-30T10:25:10.427Z,34.50
2018-06-30T10:27:39.169Z,34.40
2018-06-30T10:30:07.535Z,34.50
2018-06-30T10:32:36.029Z,34.40
2018-06-30T10:35:04.462Z,34.40
2018-06-30T10:37:32.858Z,34.50
2018-06-30T10:40:01.209Z,34.40
2018-06-30T10:42:29.618Z,34.50
2018-06-30T10:44:58.071Z,34.40
2018-06-30T10:47:26.567Z,34.50
2018-06-30T10:49:54.913Z,34.40
2018-06-30T10:52:23.273Z,34.60
2018-06-30T10:54:51.823Z,34.50
2018-06-30T10:57:20.183Z,34.50
2018-06-30T10:59:48.515Z,34.50
2018-06-30T11:02:16.894Z,34.40
2018-06-30T11:04:45.249Z,34.40
2018-06-30T11:07:13.602Z,34.50
2018-06-30T11:09:42.184Z,34.50
2018-06-30T11:12:10.580Z,34.50
2018-06-30T11:14:38.950Z,34.30
2018-06-30T11:17:07.438Z,34.40
2018-06-30T11:19:35.838Z,34.20
2018-06-30T11:22:04.244Z,34.20
2018-06-30T11:24:32.658Z,34.10
2018-06-30T11:27:01.064Z,34.30
2018-06-30T11:29:29.500Z,34.30
2018-06-30T11:31:57.825Z,34.30
2018-06-30T11:34:26.273Z,34.40
2018-06-30T11:36:54.708Z,34.30
2018-06-30T11:39:23.073Z,34.20
2018-06-30T11:41:51.402Z,34.20
2018-06-30T11:44:19.839Z,34.20
2018-06-30T11:46:48.261Z,34.30
2018-06-30T11:49:16.590Z,34.40
2018-06-30T11:51:45.024Z,34.20
2018-06-30T11:54:13.479Z,34.20
2018-06-30T11:56:42.020Z,34.10
2018-06-30T11:59:10.393Z,34.10
2018-06-30T12:01:38.790Z,34.20
2018-06-30T12:04:07.161Z,34.40
2018-06-30T12:06:35.543Z,34.20
2018-06-30T12:09:05.997Z,34.00
2018-06-30T12:11:34.349Z,33.90
2018-06-30T12:14:02.751Z,33.90
2018-06-30T12:16:31.211Z,34.00
2018-06-30T12:18:59.538Z,34.10
2018-06-30T12:21:27.911Z,34.00
2018-06-30T12:23:56.325Z,34.00
2018-06-30T12:26:24.673Z,34.00
2018-06-30T12:28:53.315Z,34.00
2018-06-30T12:31:21.753Z,34.00
2018-06-30T12:33:50.134Z,34.00
2018-06-30T12:36:18.490Z,34.50
2018-06-30T12:38:46.866Z,34.00
2018-06-30T12:41:15.180Z,33.90
2018-06-30T12:43:43.578Z,33.90
2018-06-30T12:46:12.112Z,34.00
2018-06-30T12:48:40.494Z,34.00
2018-06-30T12:51:09.472Z,33.90
2018-06-30T12:53:37.986Z,34.00
2018-06-30T12:56:06.746Z,33.90
2018-06-30T12:58:35.066Z,34.00
2018-06-30T13:01:03.430Z,34.00
2018-06-30T13:05:59.944Z,33.90
2018-06-30T13:08:28.238Z,33.90
2018-06-30T13:10:56.648Z,33.90
2018-06-30T13:13:25.080Z,33.90
2018-06-30T13:15:53.575Z,33.90
2018-06-30T13:18:22.020Z,33.90
2018-06-30T13:20:50.354Z,33.80
2018-06-30T13:23:18.776Z,33.90
2018-06-30T13:25:47.212Z,33.90
2018-06-30T13:28:15.631Z,33.70
2018-06-30T13:30:44.080Z,33.70
2018-06-30T13:33:12.468Z,33.80
2018-06-30T13:35:40.826Z,33.70
2018-06-30T13:38:09.268Z,33.70
2018-06-30T13:40:37.673Z,33.60
2018-06-30T13:43:06.582Z,33.70
2018-06-30T13:48:03.014Z,33.60
2018-06-30T13:50:31.484Z,33.70
2018-06-30T13:52:59.829Z,33.70
2018-06-30T13:55:28.176Z,33.60
2018-06-30T13:57:56.598Z,33.50
2018-06-30T14:00:25.020Z,33.70
2018-06-30T14:02:53.345Z,33.50
2018-06-30T14:05:21.733Z,33.50
2018-06-30T14:07:50.090Z,33.50
2018-06-30T14:10:18.447Z,33.60
2018-06-30T14:12:46.850Z,33.50
2018-06-30T14:15:15.228Z,33.70
2018-06-30T14:17:43.620Z,33.60
2018-06-30T14:20:11.954Z,33.50
2018-06-30T14:22:40.277Z,33.60
2018-06-30T14:25:08.916Z,33.00
2018-06-30T14:27:37.366Z,33.60
2018-06-30T14:30:08.185Z,33.70
2018-06-30T14:32:36.654Z,33.50
2018-06-30T14:35:05.002Z,33.60
2018-06-30T14:37:33.389Z,33.60
2018-06-30T14:40:01.790Z,33.50
2018-06-30T14:42:30.158Z,33.50
2018-06-30T14:44:58.589Z,33.50
2018-06-30T14:47:26.948Z,33.50
2018-06-30T14:49:55.356Z,33.50
2018-06-30T14:52:23.839Z,33.50
2018-06-30T14:54:52.288Z,33.50
2018-06-30T14:57:20.652Z,33.50
2018-06-30T14:59:49.104Z,33.70
2018-06-30T15:02:17.590Z,33.50
2018-06-30T15:04:46.160Z,33.60
2018-06-30T15:07:14.627Z,33.60
2018-06-30T15:09:43.157Z,33.50
2018-06-30T15:12:11.522Z,33.50
2018-06-30T15:14:40.036Z,33.40
2018-06-30T15:17:08.446Z,33.40
2018-06-30T15:19:37.040Z,33.30
2018-06-30T15:22:05.498Z,33.50
2018-06-30T15:24:33.978Z,33.40
2018-06-30T15:27:02.398Z,33.30
2018-06-30T15:29:30.812Z,33.40
2018-06-30T15:31:59.204Z,33.30
2018-06-30T15:34:27.642Z,33.40
2018-06-30T15:36:56.070Z,33.30
2018-06-30T15:39:24.520Z,33.30
2018-06-30T15:41:53.184Z,33.30
2018-06-30T15:44:21.532Z,33.20
2018-06-30T15:46:50.032Z,33.20
2018-06-30T15:49:18.474Z,33.10
2018-06-30T15:51:46.990Z,33.00
2018-06-30T15:54:15.968Z,33.20
2018-06-30T15:56:44.474Z,33.10
2018-06-30T15:59:12.841Z,33.30
2018-06-30T16:01:41.262Z,33.20
2018-06-30T16:04:09.714Z,33.00
2018-06-30T16:06:38.214Z,33.10
2018-06-30T16:09:08.914Z,33.20
2018-06-30T16:11:37.378Z,33.10
2018-06-30T16:14:06.576Z,33.00
2018-06-30T16:16:35.082Z,32.90
2018-06-30T16:19:03.460Z,33.00
2018-06-30T16:21:31.909Z,33.70
2018-06-30T16:24:01.423Z,32.90
2018-06-30T16:26:29.916Z,32.90
2018-06-30T16:28:58.316Z,33.10
2018-06-30T16:33:54.905Z,32.90
2018-06-30T16:36:23.654Z,32.90
2018-06-30T16:38:52.055Z,32.90
2018-06-30T16:41:20.506Z,33.00
2018-06-30T16:46:17.150Z,32.80
2018-06-30T16:48:45.633Z,32.80
2018-06-30T16:53:42.268Z,32.80
2018-06-30T16:56:10.578Z,32.80
2018-06-30T16:58:39.055Z,32.70
2018-06-30T17:01:07.621Z,32.70
2018-06-30T17:03:36.217Z,32.80
2018-06-30T17:08:32.787Z,32.50
2018-06-30T17:11:01.350Z,32.70
2018-06-30T17:13:29.734Z,32.70
2018-06-30T17:15:58.084Z,32.50
2018-06-30T17:18:26.504Z,32.50
2018-06-30T17:20:55.005Z,32.50
2018-06-30T17:23:23.430Z,32.40
2018-06-30T17:25:51.974Z,32.60
2018-06-30T17:28:20.298Z,32.50
2018-06-30T17:30:48.650Z,32.40
2018-06-30T17:33:17.025Z,32.40
2018-06-30T17:35:45.380Z,32.40
2018-06-30T17:38:13.712Z,32.40
2018-06-30T17:40:42.114Z,32.30
2018-06-30T17:43:10.557Z,32.40
2018-06-30T17:45:38.906Z,32.50
2018-06-30T17:48:07.322Z,32.40
2018-06-30T17:50:35.750Z,32.40
2018-06-30T17:53:04.140Z,32.40
2018-06-30T17:55:32.602Z,32.30
2018-06-30T17:58:00.964Z,32.30
2018-06-30T18:00:29.352Z,32.30
2018-06-30T18:02:57.908Z,32.50
2018-06-30T18:05:26.304Z,32.50
2018-06-30T18:07:54.685Z,33.10
2018-06-30T18:10:23.280Z,32.30
2018-06-30T18:12:51.670Z,32.40
2018-06-30T18:15:20.020Z,32.40
2018-06-30T18:17:48.482Z,32.40
2018-06-30T18:20:16.850Z,32.30
2018-06-30T18:22:45.281Z,32.40
2018-06-30T18:25:13.959Z,32.30
2018-06-30T18:27:42.516Z,32.20
2018-06-30T18:30:10.938Z,32.30
2018-06-30T18:32:39.377Z,32.30
2018-06-30T18:35:08.391Z,32.10
2018-06-30T18:37:36.856Z,32.20
2018-06-30T18:40:06.054Z,32.10
2018-06-30T18:42:34.398Z,32.20
2018-06-30T18:45:03.044Z,32.30
2018-06-30T18:47:31.450Z,32.30
2018-06-30T18:49:59.849Z,32.20
2018-06-30T18:52:28.284Z,32.20
2018-06-30T18:54:56.657Z,32.10
2018-06-30T18:57:25.066Z,32.10
2018-06-30T18:59:53.455Z,32.20
2018-06-30T19:02:21.806Z,32.00
2018-06-30T19:04:50.239Z,32.20
2018-06-30T19:07:18.664Z,32.20
2018-06-30T19:09:47.075Z,32.20
2018-06-30T19:12:15.512Z,32.00
2018-06-30T19:14:43.908Z,32.10
2018-06-30T19:17:12.316Z,32.10
2018-06-30T19:19:40.758Z,32.00
2018-06-30T19:22:09.272Z,31.90
2018-06-30T19:24:37.660Z,32.00
2018-06-30T19:27:06.477Z,31.90
2018-06-30T19:29:34.836Z,32.00
2018-06-30T19:32:03.168Z,32.00
2018-06-30T19:34:31.592Z,31.60
2018-06-30T19:36:59.992Z,31.90
2018-06-30T19:39:28.398Z,31.80
2018-06-30T19:41:56.877Z,31.90
2018-06-30T19:44:25.298Z,32.00
2018-06-30T19:46:53.689Z,31.90
2018-06-30T19:49:22.394Z,31.80
2018-06-30T19:54:18.993Z,32.20
2018-06-30T19:56:47.392Z,31.90
2018-06-30T19:59:15.898Z,32.00
2018-06-30T20:01:44.296Z,32.00
2018-06-30T20:04:12.691Z,32.00
2018-06-30T20:06:41.108Z,32.00
2018-06-30T20:09:09.662Z,31.90
2018-06-30T20:11:38.157Z,32.00
2018-06-30T20:14:06.779Z,32.00
2018-06-30T20:16:35.385Z,32.00
2018-06-30T20:19:03.794Z,31.90
2018-06-30T20:21:32.216Z,31.80
2018-06-30T20:24:00.638Z,31.80
2018-06-30T20:26:29.006Z,31.80
2018-06-30T20:28:57.660Z,31.90
2018-06-30T20:31:26.149Z,31.70
2018-06-30T20:33:54.603Z,32.00
2018-06-30T20:38:52.031Z,32.40
2018-06-30T20:41:20.347Z,31.90
2018-06-30T20:43:48.720Z,31.80
2018-06-30T20:46:17.115Z,31.60
2018-06-30T20:48:45.648Z,31.90
2018-06-30T20:51:14.014Z,31.70
2018-06-30T20:53:42.405Z,31.80
2018-06-30T20:56:10.784Z,31.80
2018-06-30T21:01:07.469Z,31.50
2018-06-30T21:03:35.810Z,31.80
2018-06-30T21:08:32.655Z,31.60
2018-06-30T21:11:01.347Z,31.40
2018-06-30T21:13:29.747Z,31.30
2018-06-30T21:15:58.337Z,31.70
2018-06-30T21:18:26.736Z,31.60
2018-06-30T21:20:55.159Z,31.90
2018-06-30T21:23:23.544Z,31.20
2018-06-30T21:25:51.973Z,31.60
2018-06-30T21:28:20.481Z,31.80
2018-06-30T21:30:48.873Z,31.50
2018-06-30T21:33:17.320Z,31.40
2018-06-30T21:35:45.677Z,31.50
2018-06-30T21:38:14.103Z,31.70
2018-06-30T21:40:42.525Z,31.60
2018-06-30T21:43:10.883Z,31.30
2018-06-30T21:45:39.257Z,31.40
2018-06-30T21:48:07.685Z,32.00
2018-06-30T21:50:36.291Z,32.00
2018-06-30T21:53:04.625Z,31.20
2018-06-30T21:58:01.307Z,31.50
2018-06-30T22:00:52.933Z,31.40
2018-06-30T22:03:24.859Z,31.40
2018-06-30T22:05:54.618Z,31.60
2018-06-30T22:08:23.074Z,31.40
2018-06-30T22:10:51.648Z,31.80
2018-06-30T22:13:20.382Z,31.80
2018-06-30T22:15:49.417Z,31.30
2018-06-30T22:18:17.894Z,31.40
2018-06-30T22:20:46.324Z,31.50
2018-06-30T22:23:14.751Z,31.70
2018-06-30T22:25:43.115Z,31.40
2018-06-30T22:28:11.458Z,31.70
2018-06-30T22:30:39.953Z,31.70
2018-06-30T22:33:08.517Z,31.50
2018-06-30T22:35:36.960Z,31.60
2018-06-30T22:38:05.751Z,31.40
2018-06-30T22:40:34.259Z,31.40
2018-06-30T22:43:02.633Z,31.40
2018-06-30T22:45:31.111Z,31.60
2018-06-30T22:47:59.459Z,31.50
2018-06-30T22:50:27.807Z,31.70
2018-06-30T22:52:56.259Z,31.20
2018-06-30T22:55:24.699Z,31.40
2018-06-30T22:57:53.047Z,31.20
2018-06-30T23:00:21.417Z,31.50
2018-06-30T23:02:49.807Z,31.10
2018-06-30T23:05:18.260Z,31.30
2018-06-30T23:07:46.686Z,30.90
2018-06-30T23:10:15.435Z,31.40
2018-06-30T23:12:44.578Z,31.10
2018-06-30T23:15:12.949Z,31.40
2018-06-30T23:17:41.288Z,31.30
2018-06-30T23:20:09.797Z,31.60
2018-06-30T23:23:11.183Z,31.40
2018-06-30T23:25:40.245Z,31.10
2018-06-30T23:28:09.139Z,31.10
2018-06-30T23:30:37.645Z,31.40
2018-06-30T23:33:06.023Z,31.10
2018-06-30T23:35:34.878Z,31.20
2018-06-30T23:38:04.035Z,31.00
2018-06-30T23:40:32.417Z,30.70
2018-06-30T23:43:00.844Z,31.00
2018-06-30T23:45:29.321Z,31.00
2018-06-30T23:47:57.680Z,30.90
2018-06-30T23:50:26.080Z,31.10
2018-06-30T23:52:54.515Z,31.00
2018-06-30T23:55:22.927Z,31.20
2018-06-30T23:57:51.345Z,31.30
